Time;durP1;ratioP1;P1;durP2;ratioP2;P2;SDS_P1;SDS_P2;PMS_P1;PMS_P2;Temp;Humidity;BMP_temperature;BMP_pressure;BME280_temperature;BME280_humidity;BME280_pressure;Samples;Min_cycle;Max_cycle;Signal;HPM_P1;HPM_P2
2023/07/27 00:01:28;;;;;;;3.22;2.10;;;18.40;99.90;;;;;;5051808;28;20116;-60
2023/07/27 00:03:54;;;;;;;2.75;2.00;;;18.30;99.90;;;;;;5051890;28;20021;-61
2023/07/27 00:06:20;;;;;;;3.70;2.33;;;18.30;99.90;;;;;;5052087;28;20079;-60
2023/07/27 00:08:46;;;;;;;2.03;1.90;;;18.20;99.90;;;;;;5051320;28;20498;-61
2023/07/27 00:11:12;;;;;;;3.20;2.30;;;18.20;99.90;;;;;;5051819;28;20040;-61
2023/07/27 00:13:37;;;;;;;3.33;2.20;;;18.20;99.90;;;;;;5051462;28;20060;-61
2023/07/27 00:16:06;;;;;;;4.13;2.33;;;18.40;99.90;;;;;;5051544;28;20513;-60
2023/07/27 00:18:31;;;;;;;2.65;2.13;;;18.60;99.90;;;;;;5051577;28;20029;-60
2023/07/27 00:20:57;;;;;;;3.92;1.95;;;18.80;99.90;;;;;;5051897;28;20401;-60
2023/07/27 00:23:22;;;;;;;3.67;1.83;;;18.80;99.90;;;;;;5051063;28;20486;-59
2023/07/27 00:25:49;;;;;;;2.88;2.00;;;18.90;99.90;;;;;;5051529;28;20115;-60
2023/07/27 00:28:14;;;;;;;4.30;2.38;;;18.90;99.90;;;;;;5051639;28;20146;-60
2023/07/27 00:30:40;;;;;;;4.75;2.10;;;18.80;99.90;;;;;;5051470;28;20109;-60
2023/07/27 00:33:06;;;;;;;2.90;2.08;;;18.80;99.90;;;;;;5051217;28;20032;-60
2023/07/27 00:35:31;;;;;;;3.70;2.05;;;18.80;99.90;;;;;;5051177;28;20040;-60
2023/07/27 00:37:57;;;;;;;3.22;2.15;;;18.80;99.90;;;;;;5051007;28;20028;-60
2023/07/27 00:40:22;;;;;;;4.20;2.40;;;18.80;99.90;;;;;;5051716;28;20104;-60
2023/07/27 00:42:48;;;;;;;3.60;2.20;;;18.70;99.90;;;;;;5051241;28;20078;-61
2023/07/27 00:45:14;;;;;;;3.67;2.28;;;18.50;99.90;;;;;;5051170;28;20021;-60
2023/07/27 00:47:39;;;;;;;3.60;2.30;;;18.30;99.90;;;;;;5051141;28;20036;-60
2023/07/27 00:50:05;;;;;;;3.67;2.47;;;18.20;99.90;;;;;;5051073;28;20102;-60
2023/07/27 00:52:31;;;;;;;2.75;2.30;;;18.10;99.90;;;;;;5050734;28;20033;-61
2023/07/27 00:54:58;;;;;;;3.28;2.47;;;18.00;99.90;;;;;;5051417;28;20048;-60
2023/07/27 00:57:24;;;;;;;3.97;2.53;;;18.00;99.90;;;;;;5051049;28;20486;-61
2023/07/27 00:59:51;;;;;;;2.72;2.50;;;17.90;99.90;;;;;;5051151;28;20032;-60
2023/07/27 01:02:16;;;;;;;2.65;2.38;;;17.90;99.90;;;;;;5051049;28;20025;-60
2023/07/27 01:04:43;;;;;;;3.20;2.40;;;17.80;99.90;;;;;;5050984;28;20143;-59
2023/07/27 01:07:09;;;;;;;3.65;2.65;;;17.80;99.90;;;;;;5050548;28;20497;-61
2023/07/27 01:09:34;;;;;;;3.13;2.35;;;17.80;99.90;;;;;;5050945;28;20100;-61
2023/07/27 01:12:25;;;;;;;3.85;2.50;;;17.70;99.90;;;;;;5050865;28;20025;-60
2023/07/27 01:15:17;;;;;;;4.65;2.70;;;17.70;99.90;;;;;;5048532;28;20513;-61
2023/07/27 01:17:49;;;;;;;3.70;2.40;;;17.70;99.90;;;;;;5051397;28;20040;-60
2023/07/27 01:20:21;;;;;;;4.63;2.78;;;17.70;99.90;;;;;;5030832;28;20100;-60
2023/07/27 01:22:56;;;;;;;3.70;2.50;;;17.60;99.90;;;;;;5032171;28;20040;-61
2023/07/27 01:25:36;;;;;;;3.85;2.50;;;17.60;99.90;;;;;;5034802;28;20044;-60
2023/07/27 01:28:17;;;;;;;4.88;2.28;;;17.60;99.90;;;;;;5034883;28;20116;-60
2023/07/27 01:30:57;;;;;;;3.85;2.67;;;17.60;99.90;;;;;;5033745;28;20036;-60
2023/07/27 01:33:30;;;;;;;4.47;2.17;;;17.90;99.90;;;;;;5034901;28;20038;-60
2023/07/27 01:36:05;;;;;;;3.25;2.20;;;18.00;99.90;;;;;;5034438;28;20025;-60
2023/07/27 01:38:34;;;;;;;2.83;2.10;;;18.10;99.90;;;;;;5034609;28;20032;-60
2023/07/27 01:41:01;;;;;;;2.60;2.03;;;18.10;99.90;;;;;;5035019;28;20025;-60
2023/07/27 01:43:28;;;;;;;2.85;2.00;;;18.20;99.90;;;;;;5034420;28;20526;-60
2023/07/27 01:45:57;;;;;;;5.47;2.45;;;18.20;99.90;;;;;;5034491;28;20478;-60
2023/07/27 01:48:26;;;;;;;3.97;2.05;;;18.20;99.90;;;;;;5034359;28;20037;-60
2023/07/27 01:50:52;;;;;;;2.83;2.10;;;18.20;99.90;;;;;;5034072;28;20029;-61
2023/07/27 01:53:21;;;;;;;3.63;1.90;;;18.20;99.90;;;;;;5034755;28;20120;-60
2023/07/27 01:55:48;;;;;;;3.42;2.00;;;18.20;99.90;;;;;;5034226;28;20441;-60
2023/07/27 01:58:16;;;;;;;2.78;1.98;;;18.20;99.90;;;;;;5034294;28;20041;-61
2023/07/27 02:00:42;;;;;;;2.78;2.00;;;18.00;99.90;;;;;;5034247;28;20026;-60
2023/07/27 02:03:10;;;;;;;4.82;2.38;;;17.80;99.90;;;;;;5034498;28;20021;-60
2023/07/27 02:05:36;;;;;;;2.47;2.25;;;17.70;99.90;;;;;;5033521;28;20026;-61
2023/07/27 02:08:01;;;;;;;5.32;2.42;;;17.60;99.90;;;;;;5034433;28;20041;-60
2023/07/27 02:10:29;;;;;;;2.80;2.20;;;17.50;99.90;;;;;;5034230;28;20147;-61
2023/07/27 02:13:14;;;;;;;3.70;2.30;;;17.40;99.90;;;;;;5035257;28;20036;-60
2023/07/27 02:15:46;;;;;;;3.97;2.47;;;17.30;99.90;;;;;;5054220;28;20037;-60
2023/07/27 02:18:18;;;;;;;3.42;2.30;;;17.30;99.90;;;;;;5052414;28;20025;-60
2023/07/27 02:20:46;;;;;;;2.60;2.25;;;17.20;99.90;;;;;;5053439;28;20486;-60
2023/07/27 02:23:12;;;;;;;2.92;2.17;;;17.20;99.90;;;;;;5054230;28;20033;-61
2023/07/27 02:25:38;;;;;;;3.25;2.20;;;17.10;99.90;;;;;;5053479;28;20172;-60
2023/07/27 02:28:04;;;;;;;3.47;2.28;;;17.10;99.90;;;;;;5053728;28;20103;-60
2023/07/27 02:30:30;;;;;;;2.55;2.35;;;17.10;99.90;;;;;;5053841;28;20163;-60
2023/07/27 02:32:55;;;;;;;3.95;2.47;;;17.10;99.90;;;;;;5053401;28;20521;-61
2023/07/27 02:35:21;;;;;;;4.82;2.33;;;17.00;99.90;;;;;;5051912;28;20021;-60
2023/07/27 02:37:47;;;;;;;2.83;2.33;;;17.00;99.90;;;;;;5053849;28;20426;-61
2023/07/27 02:40:12;;;;;;;3.13;2.30;;;17.00;99.90;;;;;;5053450;28;20033;-60
2023/07/27 02:42:38;;;;;;;3.25;2.10;;;17.00;99.90;;;;;;5053461;28;20593;-61
2023/07/27 02:45:04;;;;;;;3.80;2.40;;;17.00;99.90;;;;;;5053230;28;20040;-60
2023/07/27 02:47:30;;;;;;;2.95;2.10;;;17.20;99.90;;;;;;5053382;28;20025;-60
2023/07/27 02:49:55;;;;;;;2.75;2.20;;;17.40;99.90;;;;;;5052932;28;20044;-60
2023/07/27 02:52:21;;;;;;;3.17;2.08;;;17.50;99.90;;;;;;5053640;28;20123;-61
2023/07/27 02:54:47;;;;;;;3.15;2.00;;;17.60;99.90;;;;;;5053255;28;20075;-60
2023/07/27 02:57:12;;;;;;;3.65;2.20;;;17.70;99.90;;;;;;5053199;28;20024;-60
2023/07/27 02:59:38;;;;;;;3.28;1.98;;;17.70;99.90;;;;;;5053073;28;20029;-60
2023/07/27 03:02:04;;;;;;;2.20;2.00;;;17.70;99.90;;;;;;5053048;28;20048;-60
2023/07/27 03:04:30;;;;;;;3.53;2.10;;;17.70;99.90;;;;;;5052812;28;20025;-61
2023/07/27 03:06:55;;;;;;;2.35;1.90;;;17.70;99.90;;;;;;5052913;28;20474;-60
2023/07/27 03:09:21;;;;;;;5.88;2.10;;;17.70;99.90;;;;;;5052778;28;20029;-61
2023/07/27 03:11:49;;;;;;;2.72;2.00;;;17.70;99.90;;;;;;5053162;28;20037;-60
2023/07/27 03:14:15;;;;;;;3.05;2.00;;;17.50;99.90;;;;;;5052582;28;20107;-60
2023/07/27 03:16:40;;;;;;;3.90;2.40;;;17.30;99.90;;;;;;5052741;28;20047;-60
2023/07/27 03:19:06;;;;;;;3.60;2.20;;;17.10;99.90;;;;;;5051419;28;20036;-61
2023/07/27 03:21:32;;;;;;;2.63;2.30;;;17.00;99.90;;;;;;5052754;28;20040;-61
2023/07/27 03:23:57;;;;;;;2.50;2.30;;;17.00;99.90;;;;;;5052433;28;20129;-59
2023/07/27 03:26:23;;;;;;;2.70;2.50;;;16.90;99.90;;;;;;5052653;28;20021;-60
2023/07/27 03:28:49;;;;;;;2.45;2.10;;;16.80;99.90;;;;;;5052722;28;20112;-60
2023/07/27 03:31:22;;;;;;;2.45;2.10;;;16.80;99.90;;;;;;5052132;28;20412;-59
2023/07/27 03:33:48;;;;;;;;;;;16.70;99.90;;;;;;5052793;28;20409;-60
2023/07/27 03:36:16;;;;;;;2.83;2.15;;;16.70;99.90;;;;;;5052254;28;19905;-60
2023/07/27 03:38:41;;;;;;;3.17;2.30;;;16.70;99.90;;;;;;5052672;28;20516;-61
2023/07/27 03:41:07;;;;;;;3.42;2.60;;;16.70;99.90;;;;;;5052144;28;20024;-60
2023/07/27 03:43:33;;;;;;;5.05;2.60;;;16.70;99.90;;;;;;5052566;28;20033;-60
2023/07/27 03:45:59;;;;;;;3.08;2.60;;;16.60;99.90;;;;;;5051656;28;20013;-61
2023/07/27 03:48:25;;;;;;;3.60;2.47;;;16.60;99.90;;;;;;5052289;28;20609;-61
2023/07/27 03:50:52;;;;;;;2.72;2.53;;;16.50;99.90;;;;;;5052272;28;20028;-61
2023/07/27 03:53:18;;;;;;;3.83;2.55;;;16.50;99.90;;;;;;5052359;28;20091;-60
2023/07/27 03:55:43;;;;;;;5.22;2.55;;;16.40;99.90;;;;;;5052030;28;20467;-61
2023/07/27 03:58:09;;;;;;;6.60;2.30;;;16.40;99.90;;;;;;5051952;28;20400;-60
2023/07/27 04:00:35;;;;;;;2.53;2.30;;;16.40;99.90;;;;;;5051611;28;20445;-61
2023/07/27 04:03:00;;;;;;;3.92;2.20;;;16.50;99.90;;;;;;5052191;28;20029;-60
2023/07/27 04:05:26;;;;;;;2.45;2.22;;;16.70;99.90;;;;;;5051718;28;20112;-60
2023/07/27 04:07:52;;;;;;;2.60;2.10;;;16.80;99.90;;;;;;5051870;28;20032;-60
2023/07/27 04:10:18;;;;;;;1.95;1.77;;;16.90;99.90;;;;;;5051840;28;20474;-60
2023/07/27 04:12:44;;;;;;;2.35;1.80;;;16.80;99.90;;;;;;5051914;28;20094;-60
2023/07/27 04:15:10;;;;;;;2.35;1.88;;;16.90;99.90;;;;;;5051237;28;20061;-60
2023/07/27 04:17:36;;;;;;;2.30;2.10;;;16.90;99.90;;;;;;5051600;28;20053;-60
2023/07/27 04:20:02;;;;;;;2.17;1.98;;;16.80;99.90;;;;;;5051830;28;20021;-60
2023/07/27 04:22:28;;;;;;;2.80;2.33;;;16.80;99.90;;;;;;5051606;28;20036;-60
2023/07/27 04:24:53;;;;;;;3.00;2.40;;;16.80;99.90;;;;;;5051209;28;20422;-60
2023/07/27 04:27:19;;;;;;;2.28;2.08;;;16.70;99.90;;;;;;5051382;28;20059;-60
2023/07/27 04:29:45;;;;;;;2.25;2.10;;;16.60;99.90;;;;;;5051141;28;20044;-60
2023/07/27 04:32:10;;;;;;;2.53;2.33;;;16.40;99.90;;;;;;5051470;28;20499;-60
2023/07/27 04:34:36;;;;;;;2.80;2.60;;;16.30;99.90;;;;;;5051691;28;20032;-60
2023/07/27 04:37:03;;;;;;;2.80;2.60;;;16.10;99.90;;;;;;5051376;28;20463;-61
2023/07/27 04:39:28;;;;;;;2.88;2.63;;;16.10;99.90;;;;;;5051373;28;20033;-61
2023/07/27 04:41:54;;;;;;;2.80;2.60;;;16.00;99.90;;;;;;5051217;28;20029;-61
2023/07/27 04:44:20;;;;;;;2.80;2.60;;;16.00;99.90;;;;;;5050856;28;20040;-60
2023/07/27 04:46:45;;;;;;;3.10;2.90;;;15.90;99.90;;;;;;5051194;28;20079;-61
2023/07/27 04:49:11;;;;;;;3.30;3.10;;;15.90;99.90;;;;;;5051722;28;20135;-60
2023/07/27 04:51:37;;;;;;;3.70;3.40;;;15.80;99.90;;;;;;5051032;28;20021;-60
2023/07/27 04:54:03;;;;;;;4.00;3.70;;;15.80;99.90;;;;;;5051174;28;20055;-60
2023/07/27 04:56:29;;;;;;;3.65;3.35;;;15.80;99.90;;;;;;5051046;28;20021;-60
2023/07/27 04:58:55;;;;;;;3.80;3.45;;;15.70;99.90;;;;;;5050460;28;20057;-60
2023/07/27 05:01:21;;;;;;;3.97;3.67;;;15.70;99.90;;;;;;5051123;28;20098;-61
2023/07/27 05:03:47;;;;;;;3.90;3.60;;;15.70;99.90;;;;;;5051034;28;20436;-60
2023/07/27 05:06:12;;;;;;;5.70;3.60;;;15.70;99.90;;;;;;5051177;28;20128;-60
2023/07/27 05:08:38;;;;;;;3.50;3.30;;;15.70;99.90;;;;;;5051728;28;20104;-60
2023/07/27 05:11:06;;;;;;;3.50;3.20;;;15.70;99.90;;;;;;5049632;28;20534;-61
2023/07/27 05:13:32;;;;;;;3.53;3.22;;;15.70;99.90;;;;;;5050508;28;20041;-61
2023/07/27 05:16:00;;;;;;;3.67;3.38;;;15.80;99.90;;;;;;5050924;28;20486;-60
2023/07/27 05:18:26;;;;;;;3.03;2.83;;;15.80;99.90;;;;;;5050926;28;20533;-60
2023/07/27 05:20:51;;;;;;;2.90;2.70;;;16.00;99.90;;;;;;5051251;28;20071;-61
2023/07/27 05:23:17;;;;;;;3.17;2.97;;;16.20;99.90;;;;;;5050798;28;20493;-61
2023/07/27 05:25:43;;;;;;;3.13;2.92;;;16.40;99.90;;;;;;5050541;28;20049;-61
2023/07/27 05:28:08;;;;;;;3.38;3.08;;;16.50;99.90;;;;;;5050444;28;20387;-60
2023/07/27 05:30:34;;;;;;;3.20;2.90;;;16.50;99.90;;;;;;5050792;28;20108;-60
2023/07/27 05:33:00;;;;;;;3.22;2.92;;;16.60;99.90;;;;;;5050663;28;20040;-60
2023/07/27 05:35:25;;;;;;;3.88;2.72;;;16.60;99.90;;;;;;5050559;28;20096;-60
2023/07/27 05:37:51;;;;;;;3.10;2.90;;;16.70;99.90;;;;;;5050857;28;20386;-60
2023/07/27 05:40:16;;;;;;;2.63;2.42;;;16.70;99.90;;;;;;5050607;28;20047;-60
2023/07/27 05:42:43;;;;;;;3.55;3.20;;;16.70;99.90;;;;;;5050749;28;20258;-60
2023/07/27 05:45:09;;;;;;;3.10;2.90;;;16.80;99.90;;;;;;5050615;28;20036;-61
2023/07/27 05:47:35;;;;;;;2.83;2.63;;;16.70;99.90;;;;;;5050602;28;20031;-60
2023/07/27 05:50:00;;;;;;;5.45;3.05;;;16.60;99.90;;;;;;5050639;28;20037;-61
2023/07/27 05:52:26;;;;;;;3.47;3.17;;;16.50;99.90;;;;;;5050599;28;20096;-60
2023/07/27 05:54:52;;;;;;;2.78;2.58;;;16.40;99.90;;;;;;5050615;28;20490;-60
2023/07/27 05:57:18;;;;;;;3.20;2.90;;;16.30;99.90;;;;;;5050286;28;20068;-60
2023/07/27 05:59:43;;;;;;;3.35;3.05;;;16.30;99.90;;;;;;5050593;28;20108;-60
2023/07/27 06:02:09;;;;;;;3.30;3.00;;;16.30;99.90;;;;;;5050540;28;20115;-60
2023/07/27 06:04:35;;;;;;;2.65;2.33;;;16.20;99.90;;;;;;5050459;28;20025;-60
2023/07/27 06:07:00;;;;;;;3.00;2.80;;;16.30;99.90;;;;;;5050372;28;20037;-60
2023/07/27 06:09:26;;;;;;;3.75;3.30;;;16.30;99.90;;;;;;5052631;28;20103;-60
2023/07/27 06:11:52;;;;;;;3.55;3.25;;;16.40;99.90;;;;;;5053957;28;20029;-60
2023/07/27 06:14:18;;;;;;;3.75;3.22;;;16.40;99.90;;;;;;5053948;28;20029;-60
2023/07/27 06:16:44;;;;;;;4.18;3.13;;;16.40;99.90;;;;;;5053984;28;20032;-58
2023/07/27 06:19:10;;;;;;;3.33;3.03;;;16.40;99.90;;;;;;5053781;28;20103;-60
2023/07/27 06:21:36;;;;;;;2.90;2.70;;;16.50;99.90;;;;;;5054197;28;20539;-60
2023/07/27 06:24:01;;;;;;;3.30;3.00;;;16.60;99.90;;;;;;5053653;28;20049;-60
2023/07/27 06:26:27;;;;;;;2.97;2.55;;;16.60;99.90;;;;;;5053406;28;20028;-60
2023/07/27 06:28:53;;;;;;;3.00;2.72;;;16.70;99.90;;;;;;5053694;28;20037;-60
2023/07/27 06:31:19;;;;;;;2.88;2.67;;;16.70;99.90;;;;;;5053747;28;20079;-60
2023/07/27 06:33:44;;;;;;;3.65;2.78;;;16.80;99.90;;;;;;5053603;28;20406;-59
2023/07/27 06:36:14;;;;;;;4.57;2.67;;;17.00;99.90;;;;;;5053987;28;20080;-60
2023/07/27 06:38:40;;;;;;;2.92;2.20;;;17.20;99.90;;;;;;5053420;28;20112;-60
2023/07/27 06:41:06;;;;;;;2.40;2.20;;;17.30;99.90;;;;;;5051895;28;20037;-60
2023/07/27 06:43:32;;;;;;;4.00;2.40;;;17.40;99.90;;;;;;5053877;28;20053;-60
2023/07/27 06:45:57;;;;;;;3.72;2.10;;;17.60;99.90;;;;;;5053339;28;20036;-60
2023/07/27 06:48:23;;;;;;;2.17;1.98;;;17.80;99.90;;;;;;5053636;28;20013;-60
2023/07/27 06:50:49;;;;;;;2.67;1.80;;;17.80;99.90;;;;;;5053631;28;20036;-60
2023/07/27 06:53:14;;;;;;;1.80;1.70;;;18.00;99.90;;;;;;5053097;28;20041;-60
2023/07/27 06:55:40;;;;;;;1.85;1.65;;;18.00;99.90;;;;;;5052811;28;20027;-60
2023/07/27 06:58:06;;;;;;;2.47;1.83;;;18.10;99.90;;;;;;5053061;28;20044;-60
2023/07/27 07:00:31;;;;;;;2.38;1.67;;;18.30;99.90;;;;;;5053614;28;20021;-61
2023/07/27 07:02:58;;;;;;;2.55;1.67;;;18.30;99.90;;;;;;5053091;28;20548;-61
2023/07/27 07:05:24;;;;;;;4.43;1.67;;;18.30;99.90;;;;;;5052965;28;20025;-60
2023/07/27 07:07:50;;;;;;;2.70;1.65;;;18.30;99.90;;;;;;5053563;28;20017;-60
2023/07/27 07:10:18;;;;;;;2.10;1.60;;;18.40;99.90;;;;;;5052511;28;20111;-60
2023/07/27 07:12:43;;;;;;;1.88;1.60;;;18.40;99.90;;;;;;5052766;28;20041;-60
2023/07/27 07:15:10;;;;;;;2.78;1.60;;;18.50;99.90;;;;;;5052764;28;20095;-60
2023/07/27 07:17:36;;;;;;;2.10;1.50;;;18.50;99.90;;;;;;5052650;28;20033;-60
2023/07/27 07:20:05;;;;;;;1.92;1.58;;;18.60;99.90;;;;;;5052403;28;20021;-61
2023/07/27 07:22:31;;;;;;;2.60;1.52;;;18.60;99.90;;;;;;5052592;28;20127;-60
2023/07/27 07:24:57;;;;;;;1.80;1.48;;;18.70;99.90;;;;;;5052071;28;20141;-60
2023/07/27 07:27:22;;;;;;;2.55;1.60;;;18.70;99.90;;;;;;5052549;28;20120;-60
2023/07/27 07:29:48;;;;;;;1.73;1.58;;;18.80;99.90;;;;;;5052419;28;20121;-60
2023/07/27 07:32:13;;;;;;;2.50;1.33;;;18.80;99.90;;;;;;5052498;28;20024;-60
2023/07/27 07:34:39;;;;;;;1.85;1.45;;;18.80;99.90;;;;;;5052571;28;20028;-60
2023/07/27 07:37:06;;;;;;;3.95;1.65;;;18.90;99.90;;;;;;5052813;28;20064;-61
2023/07/27 07:39:32;;;;;;;3.38;1.50;;;19.00;99.90;;;;;;5052051;28;20025;-60
2023/07/27 07:41:59;;;;;;;2.75;1.63;;;19.00;99.90;;;;;;5052200;28;20544;-60
2023/07/27 07:44:25;;;;;;;5.07;1.75;;;19.20;99.90;;;;;;5052315;28;20378;-60
2023/07/27 07:46:50;;;;;;;3.33;1.70;;;19.20;99.90;;;;;;5052208;28;20036;-60
2023/07/27 07:49:16;;;;;;;3.15;1.52;;;19.30;99.90;;;;;;5050907;28;20044;-60
2023/07/27 07:51:42;;;;;;;3.05;1.52;;;19.40;99.90;;;;;;5052188;28;20393;-60
2023/07/27 07:54:09;;;;;;;1.80;1.40;;;19.60;99.90;;;;;;5052213;28;20044;-60
2023/07/27 07:56:35;;;;;;;2.05;1.58;;;19.90;99.90;;;;;;5052151;28;20076;-60
2023/07/27 07:59:01;;;;;;;2.55;1.70;;;20.10;99.90;;;;;;5052003;28;20524;-60
2023/07/27 08:01:26;;;;;;;3.00;1.50;;;20.10;99.90;;;;;;5051759;28;20032;-60
2023/07/27 08:03:52;;;;;;;3.72;1.92;;;20.30;99.90;;;;;;5052140;28;20021;-60
2023/07/27 08:06:18;;;;;;;2.38;1.33;;;20.40;99.90;;;;;;5051809;28;20033;-60
2023/07/27 08:08:44;;;;;;;1.70;1.30;;;20.50;99.90;;;;;;5051458;28;20060;-60
2023/07/27 08:11:10;;;;;;;2.22;1.20;;;20.50;99.90;;;;;;5051835;28;20031;-60
2023/07/27 08:13:36;;;;;;;1.58;1.20;;;20.70;99.90;;;;;;5051428;28;20045;-60
2023/07/27 08:16:04;;;;;;;2.05;1.25;;;20.90;99.90;;;;;;5051666;28;20406;-60
2023/07/27 08:18:32;;;;;;;3.13;1.50;;;20.90;99.90;;;;;;5051767;28;20025;-60
2023/07/27 08:21:02;;;;;;;1.92;1.30;;;21.10;99.90;;;;;;5052096;28;20413;-60
2023/07/27 08:23:28;;;;;;;1.20;1.10;;;21.10;99.90;;;;;;5051090;28;20379;-60
2023/07/27 08:25:58;;;;;;;1.58;1.10;;;20.90;99.90;;;;;;5051382;28;20047;-59
2023/07/27 08:28:23;;;;;;;2.20;1.00;;;20.80;99.90;;;;;;5051748;28;20398;-60
2023/07/27 08:30:50;;;;;;;2.25;1.30;;;20.70;99.90;;;;;;5051511;28;20029;-60
2023/07/27 08:33:16;;;;;;;1.38;1.20;;;20.80;99.90;;;;;;5050736;28;20087;-60
2023/07/27 08:35:42;;;;;;;2.08;1.30;;;20.80;99.90;;;;;;5051143;28;20055;-63
2023/07/27 08:38:08;;;;;;;2.33;1.17;;;20.80;99.90;;;;;;5051284;28;20060;-60
2023/07/27 08:40:33;;;;;;;2.40;1.00;;;20.90;99.90;;;;;;5051375;28;20022;-60
2023/07/27 08:42:59;;;;;;;1.27;1.00;;;20.90;99.90;;;;;;5051362;28;20033;-60
2023/07/27 08:45:25;;;;;;;2.63;1.20;;;20.90;99.90;;;;;;5051486;28;20055;-60
2023/07/27 08:47:53;;;;;;;1.90;1.10;;;21.10;99.90;;;;;;5031170;28;20064;-60
2023/07/27 08:50:19;;;;;;;1.50;1.00;;;21.20;99.90;;;;;;5030697;28;20072;-60
2023/07/27 08:52:45;;;;;;;1.55;1.10;;;21.20;99.90;;;;;;5031124;28;20084;-60
2023/07/27 08:55:11;;;;;;;1.85;1.20;;;21.30;99.90;;;;;;5031318;28;20022;-60
2023/07/27 08:57:37;;;;;;;2.08;1.05;;;21.30;99.90;;;;;;5031087;28;20521;-60
2023/07/27 09:00:03;;;;;;;3.33;1.20;;;21.40;99.90;;;;;;5031155;28;20525;-61
2023/07/27 09:02:29;;;;;;;1.90;1.10;;;21.50;99.90;;;;;;5030915;28;20026;-60
2023/07/27 09:04:55;;;;;;;1.25;1.00;;;21.50;99.90;;;;;;5030803;28;20030;-60
2023/07/27 09:07:21;;;;;;;1.88;1.08;;;21.60;99.90;;;;;;5031239;28;20029;-60
2023/07/27 09:09:51;;;;;;;1.83;1.15;;;21.50;99.90;;;;;;5030838;28;20033;-61
2023/07/27 09:12:26;;;;;;;2.25;1.10;;;21.60;99.90;;;;;;5031013;28;20041;-60
2023/07/27 09:14:52;;;;;;;2.00;1.00;;;22.00;99.90;;;;;;5048622;28;20048;-59
2023/07/27 09:17:18;;;;;;;1.20;0.90;;;22.30;99.90;;;;;;5051068;28;20111;-60
2023/07/27 09:19:44;;;;;;;1.30;0.90;;;22.50;99.90;;;;;;5050532;28;20021;-60
2023/07/27 09:22:13;;;;;;;3.10;1.00;;;22.70;99.90;;;;;;5050781;28;20044;-60
2023/07/27 09:24:40;;;;;;;1.42;0.95;;;22.70;99.90;;;;;;5050612;28;20037;-60
2023/07/27 09:27:11;;;;;;;2.45;1.00;;;22.70;99.90;;;;;;5050991;28;20478;-60
2023/07/27 09:29:37;;;;;;;0.98;0.90;;;22.80;99.90;;;;;;5051154;28;20025;-60
2023/07/27 09:32:05;;;;;;;1.35;0.90;;;22.80;99.90;;;;;;5050456;28;20579;-60
2023/07/27 09:34:31;;;;;;;1.08;0.90;;;22.80;99.90;;;;;;5050845;28;20450;-59
2023/07/27 09:37:02;;;;;;;1.35;1.00;;;22.80;99.90;;;;;;5050701;28;20108;-60
2023/07/27 09:39:29;;;;;;;3.00;1.20;;;22.90;99.90;;;;;;5050543;28;20040;-60
2023/07/27 09:41:55;;;;;;;1.77;1.02;;;22.90;99.90;;;;;;5050804;28;20017;-60
2023/07/27 09:44:21;;;;;;;1.40;1.00;;;22.90;99.90;;;;;;5053057;28;20040;-60
2023/07/27 09:46:47;;;;;;;2.33;1.20;;;22.90;99.90;;;;;;5054667;28;20033;-61
2023/07/27 09:49:15;;;;;;;1.63;1.20;;;22.90;99.90;;;;;;5054324;28;20494;-60
2023/07/27 09:51:41;;;;;;;1.20;1.10;;;23.00;99.90;;;;;;5054455;28;20021;-61
2023/07/27 09:54:07;;;;;;;1.60;1.13;;;23.00;99.90;;;;;;5054248;28;20127;-59
2023/07/27 09:56:34;;;;;;;2.55;1.20;;;22.90;99.90;;;;;;5054703;28;20109;-60
2023/07/27 09:59:00;;;;;;;1.52;1.30;;;23.00;99.90;;;;;;5053846;28;20029;-60
2023/07/27 10:01:26;;;;;;;1.38;1.27;;;23.20;99.90;;;;;;5054433;28;20101;-60
2023/07/27 10:03:57;;;;;;;2.22;1.20;;;23.30;99.90;;;;;;5053971;28;20452;-60
2023/07/27 10:06:27;;;;;;;2.05;1.10;;;23.30;99.90;;;;;;5054088;28;20078;-60
2023/07/27 10:08:54;;;;;;;3.78;1.40;;;23.40;99.90;;;;;;5053932;28;20036;-60
2023/07/27 10:11:31;;;;;;;2.33;1.30;;;23.50;99.90;;;;;;5054084;28;20133;-60
2023/07/27 10:14:15;;;;;;;2.67;1.20;;;23.50;99.90;;;;;;5053770;28;20045;-60
2023/07/27 10:16:55;;;;;;;1.30;1.20;;;23.60;99.90;;;;;;5053904;28;20021;-60
2023/07/27 10:19:21;;;;;;;2.15;1.30;;;23.70;99.90;;;;;;5053927;28;20033;-60
2023/07/27 10:21:48;;;;;;;3.10;1.35;;;23.70;99.90;;;;;;5053780;28;20028;-60
2023/07/27 10:24:23;;;;;;;3.05;1.23;;;23.70;99.90;;;;;;5053540;28;20086;-60
2023/07/27 10:26:51;;;;;;;2.22;1.45;;;23.70;99.90;;;;;;5052660;28;20036;-60
2023/07/27 10:29:26;;;;;;;2.30;1.50;;;24.00;99.90;;;;;;5053708;28;20029;-60
2023/07/27 10:32:10;;;;;;;1.45;1.23;;;24.30;99.90;;;;;;5053733;28;20029;-60
2023/07/27 10:34:38;;;;;;;1.50;1.20;;;24.40;99.90;;;;;;5053533;28;20123;-60
2023/07/27 10:37:05;;;;;;;1.75;1.50;;;24.70;99.90;;;;;;5053557;28;20550;-60
2023/07/27 10:39:42;;;;;;;1.40;1.23;;;24.60;99.90;;;;;;5053615;28;20032;-60
2023/07/27 10:42:12;;;;;;;2.53;1.20;;;24.70;99.90;;;;;;5053476;28;20047;-60
2023/07/27 10:44:45;;;;;;;1.23;1.05;;;24.70;99.90;;;;;;5053308;28;20029;-60
2023/07/27 10:47:37;;;;;;;2.05;1.20;;;24.90;99.90;;;;;;5053124;28;20025;-60
2023/07/27 10:50:04;;;;;;;1.30;1.20;;;25.10;99.90;;;;;;5052110;28;20068;-60
2023/07/27 10:52:31;;;;;;;1.38;1.10;;;25.10;99.90;;;;;;5053348;28;20033;-60
2023/07/27 10:54:59;;;;;;;1.35;1.15;;;25.10;99.90;;;;;;5052219;28;20150;-61
2023/07/27 10:57:27;;;;;;;1.42;1.15;;;25.30;99.90;;;;;;5053549;28;20029;-61
2023/07/27 10:59:53;;;;;;;1.38;1.20;;;25.40;99.90;;;;;;5053142;28;20024;-60
2023/07/27 11:02:30;;;;;;;1.30;1.20;;;25.30;99.90;;;;;;5052720;28;20025;-60
2023/07/27 11:05:00;;;;;;;1.20;1.10;;;25.20;99.90;;;;;;5053229;28;20033;-60
2023/07/27 11:07:34;;;;;;;1.83;1.67;;;25.00;99.90;;;;;;5052980;28;20025;-60
2023/07/27 11:10:17;;;;;;;2.28;1.55;;;24.80;99.90;;;;;;5052868;28;20023;-61
2023/07/27 11:13:00;;;;;;;1.73;1.10;;;25.00;99.90;;;;;;5052858;28;20090;-61
2023/07/27 11:15:29;;;;;;;1.83;1.30;;;25.30;99.90;;;;;;5052422;28;20047;-61
2023/07/27 11:17:59;;;;;;;1.35;1.23;;;25.60;99.90;;;;;;5052752;28;20025;-60
2023/07/27 11:20:27;;;;;;;6.63;5.40;;;25.60;99.90;;;;;;5052746;28;20436;-60
2023/07/27 11:22:55;;;;;;;4.00;3.15;;;25.80;99.90;;;;;;5052771;28;20025;-61
2023/07/27 11:25:21;;;;;;;3.15;2.38;;;25.70;99.90;;;;;;5052776;28;20041;-60
2023/07/27 11:27:51;;;;;;;3.25;1.80;;;25.40;99.90;;;;;;5052499;28;20033;-60
2023/07/27 11:30:19;;;;;;;1.88;1.23;;;25.30;99.90;;;;;;5052307;28;20538;-61
2023/07/27 11:33:01;;;;;;;1.20;1.10;;;25.40;99.90;;;;;;5052417;28;20021;-61
2023/07/27 11:35:27;;;;;;;1.42;1.27;;;25.40;99.90;;;;;;5052302;28;20032;-61
2023/07/27 11:37:53;;;;;;;2.47;1.67;;;25.50;99.90;;;;;;5052425;28;20028;-60
2023/07/27 11:40:20;;;;;;;2.75;1.20;;;25.70;99.90;;;;;;5052407;28;20033;-60
2023/07/27 11:42:46;;;;;;;1.55;1.45;;;25.70;99.90;;;;;;5052668;28;20021;-60
2023/07/27 11:45:13;;;;;;;1.60;1.50;;;25.90;99.90;;;;;;5051850;28;20028;-60
2023/07/27 11:47:39;;;;;;;1.85;1.60;;;25.90;99.90;;;;;;5052357;28;20039;-60
2023/07/27 11:50:07;;;;;;;2.05;1.75;;;26.00;99.90;;;;;;5052065;28;20031;-61
2023/07/27 11:52:35;;;;;;;2.03;1.70;;;26.20;99.90;;;;;;5052542;28;20033;-60
2023/07/27 11:55:01;;;;;;;1.80;1.40;;;26.40;99.90;;;;;;5051914;28;20017;-60
2023/07/27 11:57:27;;;;;;;1.90;1.55;;;26.50;99.90;;;;;;5052147;28;20071;-61
2023/07/27 12:00:14;;;;;;;2.38;1.80;;;26.60;99.90;;;;;;5051649;28;20047;-61
2023/07/27 12:02:44;;;;;;;2.70;1.80;;;26.60;99.90;;;;;;5052029;28;20036;-60
2023/07/27 12:05:19;;;;;;;1.70;1.60;;;26.60;99.90;;;;;;5050654;28;20493;-61
2023/07/27 12:07:45;;;;;;;2.38;1.70;;;26.50;99.90;;;;;;5051711;28;20037;-60
2023/07/27 12:10:16;;;;;;;1.65;1.55;;;26.60;99.90;;;;;;5052294;28;20025;-60
2023/07/27 12:13:03;;;;;;;2.13;1.73;;;26.60;99.90;;;;;;5050449;28;20040;-60
2023/07/27 12:15:40;;;;;;;2.45;1.98;;;26.90;99.90;;;;;;5051541;28;20037;-61
2023/07/27 12:18:07;;;;;;;2.13;1.70;;;26.80;99.90;;;;;;5051653;28;20425;-60
2023/07/27 12:20:35;;;;;;;2.15;1.90;;;26.80;99.90;;;;;;5051718;28;20029;-60
2023/07/27 12:23:01;;;;;;;2.42;1.90;;;26.90;99.90;;;;;;5051584;28;20029;-60
2023/07/27 12:25:27;;;;;;;3.45;1.80;;;26.80;99.90;;;;;;5051301;28;20045;-61
2023/07/27 12:27:53;;;;;;;1.70;1.60;;;26.60;99.90;;;;;;5051617;28;20037;-60
2023/07/27 12:30:19;;;;;;;3.13;1.75;;;26.60;99.90;;;;;;5051553;28;20090;-60
2023/07/27 12:32:46;;;;;;;2.42;1.67;;;26.70;99.90;;;;;;5051372;28;20033;-60
2023/07/27 12:35:12;;;;;;;2.65;1.60;;;26.70;99.90;;;;;;5051451;28;20025;-60
2023/07/27 12:37:37;;;;;;;1.92;1.70;;;26.70;99.90;;;;;;5051417;28;20037;-60
2023/07/27 12:40:03;;;;;;;2.20;1.70;;;26.80;99.90;;;;;;5051166;28;20033;-61
2023/07/27 12:42:29;;;;;;;2.72;1.80;;;26.90;99.90;;;;;;5051102;28;20542;-61
2023/07/27 12:44:56;;;;;;;2.20;1.88;;;26.80;99.90;;;;;;5051775;28;20096;-60
2023/07/27 12:47:22;;;;;;;1.80;1.70;;;26.80;99.90;;;;;;5051391;28;20390;-60
2023/07/27 12:49:48;;;;;;;2.92;1.85;;;27.00;99.90;;;;;;5051298;28;20035;-60